CFR2 weather

Bawlf (Blackwells) Airport
Bawlf, Alberta, Canada

Public forecast

Using degrees Celsius for public forecast. Weather courtesy of forecast.io.

Closest aviation weather report (METAR) to Bawlf (Blackwells) Airport

Closest report is Edmonton International Airport, 44.5 nm (82.5 km) NW. Retrieved 2020/04/02 13:00 UTC (2 hours ago):

CYEG 021300Z 24005KT 20SM FEW080 FEW190 M25/M28 A3029 RMK AC1CI1 AC TR FROIN SLP331

Closest aviation forecast (TAF) to Bawlf (Blackwells) Airport

Closest forecast is Edmonton International Airport, 44.5 nm (82.5 km) NW. Retrieved 2020/04/02 15:42 UTC (0 seconds ago):

TAF TAF CYEG 021438Z 0215/0312 25005KT P6SM FEW050 SCT190 BECMG 0222/0224 11005KT FM030300 13008KT P6SM BKN120 BKN200 FM030900 13010KT P6SM BKN050 BECMG 0311/0312 4SM -SN VV030 RMK NXT FCST BY 021800Z